createdAt,value
2022-10-13T00:01:00.253Z,10.97
2022-10-13T00:02:31.843Z,11.18
2022-10-13T00:04:03.131Z,10.89
2022-10-13T00:05:39.553Z,11.06
2022-10-13T00:07:10.912Z,10.78
2022-10-13T00:08:42.208Z,11.18
2022-10-13T00:10:13.466Z,10.95
2022-10-13T00:11:54.813Z,11.08
2022-10-13T00:13:26.163Z,10.63
2022-10-13T00:14:57.420Z,11.06
2022-10-13T00:16:29.086Z,10.58
2022-10-13T00:18:00.549Z,10.32
2022-10-13T00:19:31.871Z,10.30
2022-10-13T00:21:03.319Z,10.68
2022-10-13T00:22:34.938Z,10.49
2022-10-13T00:24:06.183Z,10.51
2022-10-13T00:25:37.441Z,10.47
2022-10-13T00:27:08.771Z,10.55
2022-10-13T00:28:40.368Z,10.38
2022-10-13T00:30:11.734Z,10.82
2022-10-13T00:31:43.014Z,12.22
2022-10-13T00:33:14.353Z,11.31
2022-10-13T00:34:46.019Z,11.40
2022-10-13T00:36:17.390Z,10.58
2022-10-13T00:37:53.780Z,11.05
2022-10-13T00:39:25.023Z,10.42
2022-10-13T00:40:56.578Z,10.37
2022-10-13T00:42:28.026Z,10.74
2022-10-13T00:43:59.656Z,10.46
2022-10-13T00:45:31.883Z,10.16
2022-10-13T00:47:03.122Z,10.19
2022-10-13T00:48:34.403Z,10.75
2022-10-13T00:50:05.735Z,10.46
2022-10-13T00:51:37.190Z,10.09
2022-10-13T00:53:08.631Z,10.33
2022-10-13T00:54:40.034Z,10.74
2022-10-13T00:56:11.442Z,10.05
2022-10-13T00:57:43.063Z,10.25
2022-10-13T00:59:14.491Z,10.50
2022-10-13T01:00:45.865Z,10.50
2022-10-13T01:02:17.712Z,10.81
2022-10-13T01:03:49.183Z,10.38
2022-10-13T01:05:21.020Z,10.25
2022-10-13T01:06:52.364Z,10.19
2022-10-13T01:08:23.669Z,10.07
2022-10-13T01:09:55.101Z,10.28
2022-10-13T01:11:26.373Z,10.32
2022-10-13T01:12:57.598Z,10.02
2022-10-13T01:14:29.177Z,10.47
2022-10-13T01:16:00.687Z,10.32
2022-10-13T01:17:31.940Z,10.53
2022-10-13T01:19:03.142Z,10.20
2022-10-13T01:20:34.422Z,10.16
2022-10-13T01:22:05.633Z,10.24
2022-10-13T01:23:36.898Z,10.44
2022-10-13T01:25:08.225Z,10.56
2022-10-13T01:26:39.772Z,10.47
2022-10-13T01:28:11.022Z,10.62
2022-10-13T01:29:43.483Z,10.26
2022-10-13T01:31:14.823Z,10.35
2022-10-13T01:32:46.223Z,9.99
2022-10-13T01:34:17.574Z,9.73
2022-10-13T01:35:48.981Z,10.42
2022-10-13T01:37:20.319Z,9.99
2022-10-13T01:38:51.714Z,10.02
2022-10-13T01:40:23.049Z,9.96
2022-10-13T01:41:54.369Z,9.94
2022-10-13T01:43:26.159Z,10.51
2022-10-13T01:44:57.484Z,10.40
2022-10-13T01:46:28.730Z,10.04
2022-10-13T01:47:59.992Z,10.23
2022-10-13T01:49:31.346Z,10.25
2022-10-13T01:51:02.690Z,10.10
2022-10-13T01:52:33.949Z,9.95
2022-10-13T01:54:05.174Z,10.34
2022-10-13T01:55:36.457Z,10.26
2022-10-13T01:57:07.911Z,10.42
2022-10-13T01:58:39.157Z,10.11
2022-10-13T02:00:10.602Z,10.33
2022-10-13T02:01:41.873Z,10.30
2022-10-13T02:03:13.279Z,10.19
2022-10-13T02:04:44.664Z,10.65
2022-10-13T02:06:15.912Z,10.38
2022-10-13T02:07:47.174Z,10.62
2022-10-13T02:09:18.813Z,10.71
2022-10-13T02:10:50.158Z,9.95
2022-10-13T02:12:21.796Z,10.70
2022-10-13T02:13:58.270Z,11.09
2022-10-13T02:15:29.754Z,11.20
2022-10-13T02:17:01.262Z,10.69
2022-10-13T02:18:32.605Z,11.59
2022-10-13T02:20:03.812Z,10.83
2022-10-13T02:21:35.101Z,10.79
2022-10-13T02:23:06.324Z,11.17
2022-10-13T02:24:37.588Z,10.82
2022-10-13T02:26:08.818Z,10.88
2022-10-13T02:27:40.209Z,11.19
2022-10-13T02:29:11.657Z,10.85
2022-10-13T02:30:43.203Z,10.44
2022-10-13T02:32:14.535Z,10.97
2022-10-13T02:33:46.393Z,10.84
2022-10-13T02:35:17.942Z,10.74
2022-10-13T02:36:49.285Z,11.17
2022-10-13T02:38:20.541Z,10.95
2022-10-13T02:39:56.988Z,10.85
2022-10-13T02:41:28.339Z,11.35
2022-10-13T02:42:59.733Z,10.83
2022-10-13T02:44:31.120Z,10.99
2022-10-13T02:46:02.355Z,10.62
2022-10-13T02:47:33.692Z,10.95
2022-10-13T02:49:04.945Z,10.94
2022-10-13T02:50:36.213Z,10.96
2022-10-13T02:52:07.430Z,10.83
2022-10-13T02:53:38.788Z,11.04
2022-10-13T02:55:09.986Z,11.19
2022-10-13T02:56:41.370Z,10.94
2022-10-13T02:58:12.658Z,10.92
2022-10-13T02:59:44.053Z,10.86
2022-10-13T03:01:15.431Z,10.44
2022-10-13T03:02:46.947Z,10.69
2022-10-13T03:04:18.330Z,11.01
2022-10-13T03:05:49.640Z,10.81
2022-10-13T03:07:21.067Z,10.91
2022-10-13T03:08:52.620Z,10.65
2022-10-13T03:10:24.061Z,10.77
2022-10-13T03:11:55.547Z,11.07
2022-10-13T03:13:26.813Z,10.07
2022-10-13T03:14:58.105Z,10.56
2022-10-13T03:16:29.430Z,10.72
2022-10-13T03:18:00.772Z,10.23
2022-10-13T03:19:37.412Z,10.17
2022-10-13T03:21:08.655Z,10.57
2022-10-13T03:22:39.979Z,10.40
2022-10-13T03:24:11.228Z,10.78
2022-10-13T03:25:42.453Z,10.59
2022-10-13T03:27:13.771Z,10.14
2022-10-13T03:28:45.339Z,9.94
2022-10-13T03:30:16.836Z,10.38
2022-10-13T03:31:48.134Z,10.08
2022-10-13T03:33:19.565Z,10.60
2022-10-13T03:34:50.949Z,9.76
2022-10-13T03:36:22.603Z,10.54
2022-10-13T03:37:53.908Z,10.38
2022-10-13T03:39:25.226Z,9.72
2022-10-13T03:40:56.571Z,10.45
2022-10-13T03:42:27.836Z,10.28
2022-10-13T03:43:59.170Z,9.93
2022-10-13T03:45:30.512Z,10.26
2022-10-13T03:47:01.894Z,10.09
2022-10-13T03:48:33.166Z,9.98
2022-10-13T03:50:04.437Z,10.58
2022-10-13T03:51:35.840Z,10.02
2022-10-13T03:53:07.158Z,10.16
2022-10-13T03:54:38.420Z,10.28
2022-10-13T03:56:09.992Z,10.15
2022-10-13T03:57:41.296Z,9.91
2022-10-13T03:59:13.313Z,10.39
2022-10-13T04:00:44.589Z,10.32
2022-10-13T04:02:15.923Z,10.04
2022-10-13T04:03:47.172Z,9.93
2022-10-13T04:05:18.608Z,9.86
2022-10-13T04:06:49.962Z,10.21
2022-10-13T04:08:21.496Z,10.19
2022-10-13T04:09:52.735Z,10.13
2022-10-13T04:11:23.980Z,10.57
2022-10-13T04:12:55.401Z,10.02
2022-10-13T04:14:26.745Z,10.05
2022-10-13T04:15:58.082Z,9.93
2022-10-13T04:17:29.740Z,9.58
2022-10-13T04:19:01.186Z,9.78
2022-10-13T04:20:32.411Z,10.03
2022-10-13T04:22:03.711Z,10.01
2022-10-13T04:23:35.082Z,9.75
2022-10-13T04:25:06.370Z,9.94
2022-10-13T04:26:37.639Z,10.06
2022-10-13T04:28:29.292Z,10.03
2022-10-13T04:30:00.774Z,9.92
2022-10-13T04:31:32.114Z,9.40
2022-10-13T04:33:03.434Z,9.57
2022-10-13T04:34:34.809Z,9.48
2022-10-13T04:36:06.097Z,9.72
2022-10-13T04:37:40.545Z,9.53
2022-10-13T04:39:15.537Z,9.87
2022-10-13T04:40:46.871Z,9.71
2022-10-13T04:42:18.426Z,10.09
2022-10-13T04:43:50.079Z,9.83
2022-10-13T04:45:21.444Z,10.03
2022-10-13T04:46:52.781Z,10.51
2022-10-13T04:48:24.145Z,9.82
2022-10-13T04:49:56.755Z,9.40
2022-10-13T04:51:28.077Z,10.11
2022-10-13T04:52:59.405Z,10.02
2022-10-13T04:54:30.947Z,9.93
2022-10-13T04:56:02.223Z,9.63
2022-10-13T04:57:33.565Z,9.87
2022-10-13T04:59:04.898Z,10.24
2022-10-13T05:00:36.256Z,9.98
2022-10-13T05:02:07.596Z,9.73
2022-10-13T05:03:38.989Z,9.44
2022-10-13T05:05:10.303Z,9.86
2022-10-13T05:07:05.463Z,10.20
2022-10-13T05:08:44.362Z,10.17
2022-10-13T05:10:15.713Z,10.47
2022-10-13T05:11:46.965Z,10.19
2022-10-13T05:13:18.309Z,9.76
2022-10-13T05:14:49.887Z,9.71
2022-10-13T05:16:21.374Z,9.88
2022-10-13T05:17:52.747Z,10.22
2022-10-13T05:19:24.023Z,10.05
2022-10-13T05:20:55.370Z,10.18
2022-10-13T05:22:26.891Z,10.01
2022-10-13T05:23:58.312Z,9.78
2022-10-13T05:25:33.673Z,10.02
2022-10-13T05:27:05.534Z,9.81
2022-10-13T05:28:36.950Z,9.79
2022-10-13T05:30:08.280Z,9.81
2022-10-13T05:31:39.722Z,9.31
2022-10-13T05:33:11.116Z,9.76
2022-10-13T05:34:42.398Z,9.49
2022-10-13T05:36:13.618Z,9.54
2022-10-13T05:38:04.368Z,9.16
2022-10-13T05:39:35.764Z,8.97
2022-10-13T05:41:07.190Z,9.48
2022-10-13T05:42:38.637Z,9.58
2022-10-13T05:44:10.039Z,9.44
2022-10-13T05:45:41.614Z,9.44
2022-10-13T05:47:12.868Z,9.76
2022-10-13T05:48:44.131Z,9.37
2022-10-13T05:50:15.827Z,9.04
2022-10-13T05:51:47.212Z,9.16
2022-10-13T05:53:18.544Z,9.08
2022-10-13T05:54:49.804Z,9.61
2022-10-13T05:56:21.131Z,9.22
2022-10-13T05:57:52.376Z,9.03
2022-10-13T05:59:33.731Z,9.32
2022-10-13T06:01:05.065Z,9.32
2022-10-13T06:02:36.513Z,9.32
2022-10-13T06:04:07.823Z,8.93
2022-10-13T06:05:39.126Z,9.05
2022-10-13T06:07:10.392Z,9.09
2022-10-13T06:08:41.753Z,8.94
2022-10-13T06:10:13.342Z,9.08
2022-10-13T06:11:44.739Z,9.08
2022-10-13T06:13:15.977Z,8.62
2022-10-13T06:14:47.348Z,9.26
2022-10-13T06:16:18.865Z,8.86
2022-10-13T06:17:50.153Z,8.95
2022-10-13T06:19:21.474Z,9.23
2022-10-13T06:20:52.712Z,9.50
2022-10-13T06:22:23.991Z,8.68
2022-10-13T06:23:55.251Z,8.49
2022-10-13T06:25:26.504Z,9.14
2022-10-13T06:26:57.758Z,9.08
2022-10-13T06:28:29.527Z,8.87
2022-10-13T06:30:00.901Z,9.32
2022-10-13T06:31:32.235Z,8.93
2022-10-13T06:33:03.887Z,8.68
2022-10-13T06:34:35.286Z,8.75
2022-10-13T06:36:06.691Z,9.02
2022-10-13T06:37:37.939Z,8.75
2022-10-13T06:39:09.232Z,8.69
2022-10-13T06:40:41.008Z,8.78
2022-10-13T06:42:12.361Z,8.67
2022-10-13T06:43:43.931Z,8.53
2022-10-13T06:45:15.404Z,9.55
2022-10-13T06:46:47.448Z,9.12
2022-10-13T06:48:19.242Z,9.53
2022-10-13T06:49:50.628Z,8.94
2022-10-13T06:51:21.973Z,8.35
2022-10-13T06:52:53.333Z,8.19
2022-10-13T06:54:24.902Z,8.33
2022-10-13T06:55:56.182Z,8.64
2022-10-13T06:57:27.640Z,8.28
2022-10-13T06:58:59.103Z,8.12
2022-10-13T07:00:30.593Z,8.35
2022-10-13T07:02:01.994Z,8.24
2022-10-13T07:03:33.401Z,8.24
2022-10-13T07:05:04.728Z,7.84
2022-10-13T07:06:35.990Z,7.99
2022-10-13T07:08:07.237Z,7.18
2022-10-13T07:09:38.664Z,7.74
2022-10-13T07:11:15.412Z,7.57
2022-10-13T07:12:57.401Z,7.81
2022-10-13T07:14:28.755Z,8.19
2022-10-13T07:16:00.147Z,7.57
2022-10-13T07:17:33.211Z,7.69
2022-10-13T07:19:04.635Z,8.04
2022-10-13T07:20:35.951Z,7.74
2022-10-13T07:22:07.374Z,7.57
2022-10-13T07:23:38.690Z,7.91
2022-10-13T07:25:10.170Z,7.34
2022-10-13T07:29:04.798Z,7.83
2022-10-13T07:30:40.678Z,7.48
2022-10-13T07:32:23.800Z,7.91
2022-10-13T07:33:55.313Z,7.87
2022-10-13T07:35:30.480Z,7.86
2022-10-13T07:37:10.705Z,7.70
2022-10-13T07:38:41.997Z,7.83
2022-10-13T07:40:13.328Z,7.61
2022-10-13T07:41:50.098Z,7.90
2022-10-13T07:43:22.414Z,8.22
2022-10-13T07:44:58.803Z,7.75
2022-10-13T07:46:30.176Z,7.94
2022-10-13T07:48:06.584Z,7.99
2022-10-13T07:49:38.161Z,7.87
2022-10-13T07:51:09.592Z,7.93
2022-10-13T07:52:41.069Z,7.30
2022-10-13T07:54:12.529Z,7.44
2022-10-13T07:55:43.825Z,7.38
2022-10-13T07:57:15.130Z,8.07
2022-10-13T07:58:46.488Z,7.38
2022-10-13T08:00:17.824Z,7.46
2022-10-13T08:01:49.214Z,7.45
2022-10-13T08:03:20.752Z,7.55
2022-10-13T08:04:53.071Z,7.53
2022-10-13T08:06:24.643Z,7.04
2022-10-13T08:07:58.370Z,7.61
2022-10-13T08:09:30.012Z,7.43
2022-10-13T08:11:01.475Z,7.53
2022-10-13T08:12:32.853Z,7.79
2022-10-13T08:14:04.263Z,7.61
2022-10-13T08:15:38.601Z,7.42
2022-10-13T08:17:09.856Z,7.24
2022-10-13T08:18:41.177Z,6.95
2022-10-13T08:20:12.632Z,7.15
2022-10-13T08:21:58.899Z,8.00
2022-10-13T08:23:31.102Z,7.62
2022-10-13T08:25:02.479Z,7.82
2022-10-13T08:26:33.965Z,7.52
2022-10-13T08:28:05.438Z,7.24
2022-10-13T08:29:36.974Z,7.21
2022-10-13T08:31:08.499Z,9.04
2022-10-13T08:32:40.040Z,8.18
2022-10-13T08:34:11.469Z,7.24
2022-10-13T08:35:42.830Z,7.26
2022-10-13T08:37:14.357Z,7.44
2022-10-13T08:38:46.066Z,7.00
2022-10-13T08:40:17.592Z,7.32
2022-10-13T08:41:49.161Z,7.34
2022-10-13T08:43:20.568Z,7.04
2022-10-13T08:45:39.350Z,6.82
2022-10-13T08:47:11.532Z,7.38
2022-10-13T08:48:42.856Z,7.79
2022-10-13T08:50:14.757Z,7.63
2022-10-13T08:51:46.355Z,7.82
2022-10-13T08:53:18.007Z,7.76
2022-10-13T08:54:49.650Z,7.78
2022-10-13T08:56:21.021Z,7.21
2022-10-13T08:57:53.066Z,7.55
2022-10-13T08:59:24.774Z,7.52
2022-10-13T09:00:56.251Z,7.48
2022-10-13T09:02:28.032Z,7.43
2022-10-13T09:03:59.381Z,7.54
2022-10-13T09:05:31.029Z,7.62
2022-10-13T09:07:02.801Z,7.40
2022-10-13T09:08:34.306Z,7.48
2022-10-13T09:10:05.789Z,7.37
2022-10-13T09:11:37.144Z,7.27
2022-10-13T09:13:08.577Z,7.32
2022-10-13T09:14:39.907Z,7.57
2022-10-13T09:16:11.390Z,7.31
2022-10-13T09:17:42.937Z,7.25
2022-10-13T09:19:14.318Z,6.52
2022-10-13T09:20:45.999Z,6.94
2022-10-13T09:22:17.690Z,6.61
2022-10-13T09:23:49.318Z,6.89
2022-10-13T09:25:20.948Z,6.69
2022-10-13T09:26:52.448Z,7.08
2022-10-13T09:28:24.242Z,6.69
2022-10-13T09:29:55.912Z,6.54
2022-10-13T09:31:27.647Z,6.59
2022-10-13T09:32:59.175Z,6.63
2022-10-13T09:34:30.602Z,6.45
2022-10-13T09:36:02.332Z,6.65
2022-10-13T09:37:33.741Z,6.45
2022-10-13T09:39:05.122Z,6.38
2022-10-13T09:40:36.586Z,6.65
2022-10-13T09:42:07.999Z,6.59
2022-10-13T09:43:39.444Z,6.73
2022-10-13T09:45:10.832Z,6.61
2022-10-13T09:46:42.313Z,6.69
2022-10-13T09:48:14.097Z,6.63
2022-10-13T09:49:45.580Z,6.93
2022-10-13T09:51:17.038Z,6.50
2022-10-13T09:52:48.412Z,6.20
2022-10-13T09:54:24.773Z,6.66
2022-10-13T09:55:56.385Z,6.81
2022-10-13T09:57:27.775Z,6.32
2022-10-13T09:58:59.143Z,6.30
2022-10-13T10:00:30.753Z,6.03
2022-10-13T10:02:02.084Z,6.32
2022-10-13T10:03:33.827Z,6.42
2022-10-13T10:05:05.216Z,6.28
2022-10-13T10:06:36.585Z,6.84
2022-10-13T10:08:08.024Z,7.62
2022-10-13T10:09:39.890Z,6.72
2022-10-13T10:11:11.239Z,6.58
2022-10-13T10:12:42.719Z,6.73
2022-10-13T10:14:14.145Z,6.91
2022-10-13T10:15:45.516Z,6.62
2022-10-13T10:17:17.438Z,6.52
2022-10-13T10:18:49.170Z,6.48
2022-10-13T10:20:20.935Z,6.63
2022-10-13T10:21:52.467Z,6.67
2022-10-13T10:23:23.975Z,6.28
2022-10-13T10:24:55.528Z,6.15
2022-10-13T10:26:31.650Z,6.39
2022-10-13T10:28:03.975Z,6.67
2022-10-13T10:29:40.570Z,6.41
2022-10-13T10:31:12.008Z,6.51
2022-10-13T10:32:43.366Z,6.29
2022-10-13T10:34:15.484Z,6.35
2022-10-13T10:35:47.155Z,6.26
2022-10-13T10:37:22.848Z,6.40
2022-10-13T10:38:56.711Z,6.09
2022-10-13T10:40:33.143Z,6.02
2022-10-13T10:42:04.457Z,5.88
2022-10-13T10:43:35.915Z,6.25
2022-10-13T10:45:07.278Z,6.35
2022-10-13T10:46:38.893Z,5.71
2022-10-13T10:48:10.295Z,6.24
2022-10-13T10:49:41.627Z,6.09
2022-10-13T10:51:13.647Z,6.80
2022-10-13T10:52:45.009Z,6.62
2022-10-13T10:54:16.510Z,6.10
2022-10-13T10:55:47.949Z,6.19
2022-10-13T10:57:19.650Z,6.37
2022-10-13T10:58:51.320Z,6.23
2022-10-13T11:00:23.031Z,6.29
2022-10-13T11:01:55.620Z,6.40
2022-10-13T11:03:27.133Z,6.30
2022-10-13T11:05:05.164Z,5.94
2022-10-13T11:06:37.826Z,6.01
2022-10-13T11:08:09.254Z,6.00
2022-10-13T11:09:41.085Z,5.91
2022-10-13T11:11:12.588Z,6.04
2022-10-13T11:12:44.207Z,6.16
2022-10-13T11:14:15.587Z,5.92
2022-10-13T11:15:48.270Z,6.24
2022-10-13T11:17:19.726Z,6.12
2022-10-13T11:18:51.511Z,5.44
2022-10-13T11:20:23.031Z,5.85
2022-10-13T11:21:54.926Z,5.82
2022-10-13T11:23:26.895Z,5.39
2022-10-13T11:24:58.289Z,5.51
2022-10-13T11:26:29.973Z,5.74
2022-10-13T11:28:01.378Z,5.42
2022-10-13T11:29:33.104Z,5.27
2022-10-13T11:31:04.530Z,5.61
2022-10-13T11:32:36.022Z,5.69
2022-10-13T11:34:07.387Z,5.47
2022-10-13T11:35:38.822Z,5.21
2022-10-13T11:37:10.282Z,5.30
2022-10-13T11:38:41.752Z,5.18
2022-10-13T11:40:13.344Z,5.39
2022-10-13T11:41:44.847Z,5.66
2022-10-13T11:43:16.326Z,5.34
2022-10-13T11:44:48.013Z,5.14
2022-10-13T11:46:19.730Z,6.43
2022-10-13T11:47:51.167Z,4.99
2022-10-13T11:49:22.674Z,5.22
2022-10-13T11:50:54.941Z,4.97
2022-10-13T11:52:26.520Z,5.17
2022-10-13T11:53:58.000Z,4.97
2022-10-13T11:55:30.557Z,4.63
2022-10-13T11:57:02.045Z,5.45
2022-10-13T11:58:33.557Z,5.74
2022-10-13T12:00:05.049Z,4.98
2022-10-13T12:01:36.441Z,4.75
2022-10-13T12:03:07.865Z,4.96
2022-10-13T12:04:44.035Z,4.73
2022-10-13T12:06:17.876Z,4.93
2022-10-13T12:07:49.517Z,4.91
2022-10-13T12:09:21.034Z,4.94
2022-10-13T12:10:57.553Z,4.84
2022-10-13T12:12:29.112Z,5.02
2022-10-13T12:14:00.688Z,4.82
2022-10-13T12:15:47.255Z,4.69
2022-10-13T12:17:23.496Z,4.87
2022-10-13T12:18:55.563Z,4.90
2022-10-13T12:20:47.068Z,5.16
2022-10-13T12:22:40.365Z,4.83
2022-10-13T12:24:11.808Z,5.55
2022-10-13T12:25:53.223Z,5.42
2022-10-13T12:27:24.605Z,4.96
2022-10-13T12:29:06.050Z,5.04
2022-10-13T12:30:48.484Z,5.07
2022-10-13T12:32:19.934Z,5.08
2022-10-13T12:33:51.685Z,5.43
2022-10-13T12:35:33.186Z,5.29
2022-10-13T12:37:04.537Z,5.19
2022-10-13T12:38:35.975Z,5.14
2022-10-13T12:40:07.362Z,5.07
2022-10-13T12:41:38.768Z,4.75
2022-10-13T12:43:10.288Z,5.05
2022-10-13T12:44:41.653Z,4.94
2022-10-13T12:46:12.972Z,4.32
2022-10-13T12:47:44.372Z,4.43
2022-10-13T12:49:16.115Z,4.97
2022-10-13T12:50:57.606Z,4.79
2022-10-13T12:52:29.147Z,4.30
2022-10-13T12:54:00.525Z,4.66
2022-10-13T12:55:31.940Z,4.25
2022-10-13T12:57:03.242Z,4.32
2022-10-13T12:58:51.005Z,4.22
2022-10-13T13:00:22.494Z,4.38
2022-10-13T13:01:53.862Z,4.66
2022-10-13T13:03:25.297Z,4.48
2022-10-13T13:05:01.786Z,4.50
2022-10-13T13:06:33.191Z,4.97
2022-10-13T13:08:10.622Z,4.75
2022-10-13T13:09:42.126Z,4.97
2022-10-13T13:11:13.726Z,5.20
2022-10-13T13:12:45.198Z,5.10
2022-10-13T13:14:16.625Z,5.72
2022-10-13T13:15:48.082Z,5.31
2022-10-13T13:17:32.714Z,5.49
2022-10-13T13:19:10.082Z,5.71
2022-10-13T13:20:41.516Z,5.84
2022-10-13T13:22:13.156Z,6.36
2022-10-13T13:23:47.878Z,6.30
2022-10-13T13:25:21.066Z,6.80
2022-10-13T13:26:52.840Z,6.70
2022-10-13T13:28:24.476Z,6.57
2022-10-13T13:29:55.870Z,7.18
2022-10-13T13:31:27.759Z,7.30
2022-10-13T13:32:59.200Z,7.45
2022-10-13T13:34:30.528Z,8.57
2022-10-13T13:36:01.837Z,7.92
2022-10-13T13:37:33.157Z,7.00
2022-10-13T13:39:04.656Z,7.56
2022-10-13T13:40:36.213Z,7.69
2022-10-13T13:42:07.720Z,7.97
2022-10-13T13:43:39.261Z,8.04
2022-10-13T13:45:10.635Z,8.33
2022-10-13T13:46:41.986Z,8.07
2022-10-13T13:48:13.432Z,8.67
2022-10-13T13:49:44.908Z,8.43
2022-10-13T13:51:16.537Z,8.36
2022-10-13T13:52:48.034Z,8.14
2022-10-13T13:54:19.650Z,8.20
2022-10-13T13:55:51.026Z,8.05
2022-10-13T13:57:23.046Z,8.08
2022-10-13T13:58:54.659Z,8.02
2022-10-13T14:00:26.335Z,7.88
2022-10-13T14:01:58.037Z,8.25
2022-10-13T14:03:34.628Z,8.88
2022-10-13T14:05:06.206Z,8.40
2022-10-13T14:06:37.726Z,8.47
2022-10-13T14:08:09.211Z,8.42
2022-10-13T14:09:40.586Z,8.41
2022-10-13T14:11:12.014Z,7.91
2022-10-13T14:12:43.596Z,7.98
2022-10-13T14:14:14.964Z,8.26
2022-10-13T14:15:46.319Z,8.19
2022-10-13T14:17:17.724Z,8.36
2022-10-13T14:18:49.321Z,8.20
2022-10-13T14:20:20.697Z,8.09
2022-10-13T14:21:52.187Z,8.45
2022-10-13T14:23:24.105Z,8.38
2022-10-13T14:24:55.423Z,8.05
2022-10-13T14:26:26.837Z,8.28
2022-10-13T14:27:58.431Z,8.50
2022-10-13T14:29:29.855Z,8.39
2022-10-13T14:31:01.281Z,9.01
2022-10-13T14:32:32.686Z,9.05
2022-10-13T14:34:04.425Z,8.87
2022-10-13T14:35:35.917Z,8.71
2022-10-13T14:37:07.372Z,9.05
2022-10-13T14:38:38.703Z,8.94
2022-10-13T14:40:10.077Z,8.41
2022-10-13T14:41:41.460Z,8.85
2022-10-13T14:43:12.833Z,8.83
2022-10-13T14:44:44.134Z,9.41
2022-10-13T14:46:15.442Z,8.97
2022-10-13T14:47:46.895Z,9.22
2022-10-13T14:49:18.365Z,9.41
2022-10-13T14:50:49.949Z,9.26
2022-10-13T14:52:21.283Z,9.35
2022-10-13T14:53:57.880Z,9.51
2022-10-13T14:55:29.454Z,9.76
2022-10-13T14:57:00.979Z,9.59
2022-10-13T14:59:09.210Z,9.70
2022-10-13T15:00:40.660Z,9.61
2022-10-13T15:02:12.035Z,9.50
2022-10-13T15:03:44.874Z,9.75
2022-10-13T15:05:16.772Z,9.83
2022-10-13T15:07:25.377Z,10.13
2022-10-13T15:08:56.934Z,10.00
2022-10-13T15:10:33.393Z,10.24
2022-10-13T15:12:04.878Z,10.16
2022-10-13T15:13:36.290Z,10.24
2022-10-13T15:15:07.718Z,10.62
2022-10-13T15:16:39.784Z,10.67
2022-10-13T15:18:11.119Z,10.37
2022-10-13T15:19:42.462Z,10.52
2022-10-13T15:21:14.100Z,10.35
2022-10-13T15:22:45.587Z,10.12
2022-10-13T15:24:17.043Z,10.51
2022-10-13T15:25:48.627Z,10.22
2022-10-13T15:27:20.814Z,10.53
2022-10-13T15:28:52.238Z,10.41
2022-10-13T15:30:23.761Z,10.61
2022-10-13T15:31:55.089Z,10.64
2022-10-13T15:33:29.386Z,10.71
2022-10-13T15:35:00.992Z,11.03
2022-10-13T15:36:38.255Z,10.85
2022-10-13T15:38:14.856Z,11.17
2022-10-13T15:39:46.429Z,11.76
2022-10-13T15:41:57.866Z,11.76
2022-10-13T15:43:44.592Z,12.22
2022-10-13T15:45:16.000Z,12.04
2022-10-13T15:47:07.067Z,11.64
2022-10-13T15:48:39.396Z,11.71
2022-10-13T15:50:10.962Z,11.85
2022-10-13T15:51:42.284Z,12.25
2022-10-13T15:53:13.726Z,12.17
2022-10-13T15:54:45.111Z,12.54
2022-10-13T15:56:16.560Z,12.31
2022-10-13T15:57:53.042Z,12.33
2022-10-13T15:59:25.389Z,12.56
2022-10-13T16:00:56.968Z,12.26
2022-10-13T16:02:38.552Z,12.60
2022-10-13T16:04:09.953Z,12.64
2022-10-13T16:05:51.412Z,12.56
2022-10-13T16:09:38.289Z,12.62
2022-10-13T16:11:10.071Z,12.28
2022-10-13T16:13:09.867Z,12.54
2022-10-13T16:14:44.955Z,12.28
2022-10-13T16:16:26.239Z,12.04
2022-10-13T16:17:57.621Z,12.14
2022-10-13T16:19:29.042Z,12.67
2022-10-13T16:21:00.597Z,12.53
2022-10-13T16:22:31.952Z,12.82
2022-10-13T16:24:03.356Z,12.70
2022-10-13T16:25:57.983Z,13.16
2022-10-13T16:27:48.562Z,12.87
2022-10-13T16:29:25.411Z,13.11
2022-10-13T16:30:57.167Z,13.26
2022-10-13T16:32:35.347Z,13.02
2022-10-13T16:34:44.666Z,13.35
2022-10-13T16:36:21.497Z,12.83
2022-10-13T16:38:02.875Z,13.24
2022-10-13T16:39:57.753Z,14.10
2022-10-13T16:41:46.744Z,12.98
2022-10-13T16:43:44.282Z,13.44
2022-10-13T16:47:08.093Z,14.29
2022-10-13T16:48:49.554Z,13.42
2022-10-13T16:50:21.048Z,14.20
2022-10-13T16:52:05.018Z,14.88
2022-10-13T16:53:40.199Z,14.25
2022-10-13T16:55:11.590Z,14.08
2022-10-13T16:56:48.614Z,14.78
2022-10-13T16:58:25.082Z,14.69
2022-10-13T17:00:02.059Z,15.88
2022-10-13T17:01:45.503Z,15.64
2022-10-13T17:03:17.946Z,15.29
2022-10-13T17:04:59.300Z,16.21
2022-10-13T17:06:30.701Z,16.18
2022-10-13T17:10:05.162Z,16.16
2022-10-13T17:11:48.173Z,14.97
2022-10-13T17:13:51.835Z,14.96
2022-10-13T17:15:29.068Z,15.07
2022-10-13T17:17:01.746Z,14.76
2022-10-13T17:18:53.418Z,14.54
2022-10-13T17:20:24.888Z,14.44
2022-10-13T17:21:56.569Z,14.66
2022-10-13T17:23:28.018Z,14.42
2022-10-13T17:25:04.912Z,14.35
2022-10-13T17:26:56.461Z,14.42
2022-10-13T17:28:27.940Z,14.42
2022-10-13T17:29:59.397Z,13.96
2022-10-13T17:31:35.879Z,14.05
2022-10-13T17:33:07.446Z,14.58
2022-10-13T17:34:38.830Z,14.40
2022-10-13T17:36:10.362Z,13.97
2022-10-13T17:37:42.012Z,14.47
2022-10-13T17:39:13.385Z,13.77
2022-10-13T17:40:45.496Z,14.27
2022-10-13T17:42:16.879Z,15.41
2022-10-13T17:43:48.677Z,15.21
2022-10-13T17:45:20.034Z,14.34
2022-10-13T17:49:10.737Z,13.49
2022-10-13T17:50:47.523Z,13.14
2022-10-13T17:52:29.022Z,12.74
2022-10-13T17:54:34.386Z,12.18
2022-10-13T17:58:00.327Z,11.61
2022-10-13T17:59:32.310Z,12.27
2022-10-13T18:01:12.984Z,11.63
2022-10-13T18:02:58.479Z,11.15
2022-10-13T18:04:31.655Z,11.48
2022-10-13T18:06:08.848Z,12.00
2022-10-13T18:07:55.667Z,12.24
2022-10-13T18:09:55.439Z,12.84
2022-10-13T18:11:54.649Z,12.90
2022-10-13T18:13:36.572Z,13.85
2022-10-13T18:15:14.835Z,13.89
2022-10-13T18:16:46.190Z,14.77
2022-10-13T18:18:17.519Z,14.87
2022-10-13T18:19:54.376Z,14.93
2022-10-13T18:21:52.371Z,15.40
2022-10-13T18:23:41.581Z,15.85
2022-10-13T18:25:13.205Z,16.33
2022-10-13T18:26:44.696Z,16.28
2022-10-13T18:28:19.720Z,15.85
2022-10-13T18:30:02.521Z,15.13
2022-10-13T18:31:40.648Z,14.60
2022-10-13T18:33:23.202Z,13.48
2022-10-13T18:35:20.066Z,13.21
2022-10-13T18:36:51.687Z,15.91
2022-10-13T18:38:28.344Z,13.92
2022-10-13T18:40:34.067Z,12.66
2022-10-13T18:42:27.004Z,12.35
2022-10-13T18:44:14.045Z,12.22
2022-10-13T18:45:55.672Z,11.95
2022-10-13T18:47:37.580Z,11.32
2022-10-13T18:49:09.905Z,12.24
2022-10-13T18:50:51.436Z,11.80
2022-10-13T18:52:34.728Z,12.14
2022-10-13T18:54:06.524Z,11.62
2022-10-13T18:55:37.846Z,12.21
2022-10-13T18:57:09.462Z,12.34
2022-10-13T18:58:40.832Z,12.81
2022-10-13T19:00:12.327Z,12.68
2022-10-13T19:01:43.825Z,12.82
2022-10-13T19:03:15.378Z,12.98
2022-10-13T19:04:57.838Z,13.00
2022-10-13T19:06:41.011Z,13.19
2022-10-13T19:08:17.477Z,13.39
2022-10-13T19:10:14.914Z,13.02
2022-10-13T19:11:48.507Z,13.61
2022-10-13T19:13:29.954Z,13.94
2022-10-13T19:15:24.817Z,13.66
2022-10-13T19:17:01.573Z,13.26
2022-10-13T19:18:39.238Z,13.78
2022-10-13T19:20:20.929Z,14.01
2022-10-13T19:21:52.238Z,14.32
2022-10-13T19:23:23.659Z,13.54
2022-10-13T19:24:55.433Z,13.15
2022-10-13T19:26:26.914Z,13.82
2022-10-13T19:28:03.262Z,14.24
2022-10-13T19:29:34.573Z,13.12
2022-10-13T19:31:28.483Z,13.93
2022-10-13T19:33:19.998Z,13.46
2022-10-13T19:35:01.467Z,13.01
2022-10-13T19:36:32.775Z,13.11
2022-10-13T19:38:36.240Z,13.15
2022-10-13T19:40:07.797Z,13.16
2022-10-13T19:41:44.452Z,13.26
2022-10-13T19:43:16.131Z,13.20
2022-10-13T19:45:08.686Z,12.90
2022-10-13T19:46:46.249Z,12.55
2022-10-13T19:48:17.608Z,13.30
2022-10-13T19:49:48.988Z,13.90
2022-10-13T19:53:44.747Z,13.68
2022-10-13T19:55:16.100Z,13.95
2022-10-13T19:57:03.561Z,13.73
2022-10-13T19:58:34.937Z,13.66
2022-10-13T20:00:21.618Z,13.65
2022-10-13T20:02:08.268Z,13.80
2022-10-13T20:03:59.627Z,13.40
2022-10-13T20:05:57.239Z,13.60
2022-10-13T20:07:38.668Z,13.72
2022-10-13T20:09:10.115Z,14.49
2022-10-13T20:10:41.415Z,14.33
2022-10-13T20:12:18.220Z,13.64
2022-10-13T20:13:49.676Z,14.85
2022-10-13T20:15:21.403Z,14.58
2022-10-13T20:16:54.352Z,14.85
2022-10-13T20:18:25.814Z,14.89
2022-10-13T20:20:13.368Z,14.64
2022-10-13T20:21:49.815Z,15.57
2022-10-13T20:23:21.296Z,15.30
2022-10-13T20:24:53.170Z,14.85
2022-10-13T20:26:24.510Z,15.11
2022-10-13T20:28:17.270Z,14.93
2022-10-13T20:29:48.948Z,15.41
2022-10-13T20:31:20.261Z,15.33
2022-10-13T20:32:51.733Z,16.85
2022-10-13T20:34:28.311Z,15.58
2022-10-13T20:36:11.457Z,15.64
2022-10-13T20:37:54.006Z,15.81
2022-10-13T20:40:02.668Z,16.13
2022-10-13T20:41:43.993Z,16.47
2022-10-13T20:43:15.941Z,16.20
2022-10-13T20:44:52.277Z,16.79
2022-10-13T20:49:08.850Z,17.26